Attercliffe, United Kingdom
Current Conditions -  °F | °C
As of 8:50 AM on Saturday 22 Nov 2014 (Local Time) from EGCN Reporting Station
Haze Haze  
Wind Chill: 52°   Ceiling: 400
Heat Index: 52°   Visibility: 2.5mi
Dew Point: 50°   Wind: 8mph
Humidity: 94%   Direction: 170°S
Pressure: 29.85"   Gusts: NA
Location:  53.4°N, 1.46°W
Report Text: EGCN 220850Z 17007KT 4000 BR BKN004 11/10 Q1011
Loading
Personal Weather Stations






























Interactive Weather Map New forecast layout! Learn more

10-Day Weather Forecast

Advertisements
Track Severe Weather on mobile